Mountainhome, PA

2:51 PM EDT on September 30, 2014 (GMT -0400)
Wilkes-Barre-Scranton International | Change Station
CLOSE
Current Station
Airport
Location: Avoca,
Elevation: 961 ft
Nearby Weather Stations

Elev 961 ft 41.33 °N, 75.72 °W | Updated 57 minutes ago

Mostly Cloudy
Mostly Cloudy
73 °F
Feels Like 73 °F
N
7
Wind Variable Wind from West

Today
High -- | Low -- °F
--% Chance of Precip.
Yesterday
High -- | Low -- °F
Precip. -- in
6:56 AM 6:44 PM
Waxing Crescent, 39% visible
Pressure 29.89 in
Visibility 8.0 miles
Clouds Mostly Cloudy 4200 ft
Mostly Cloudy 4900 ft
Overcast 6000 ft
Dew Point 57 °F
Humidity 57%
Rainfall 0.00 in
Snow Depth Not available.
UV 2 out of 12
Pollen 1.90 out of 12
Air Quality Not available.
Flu Activity Not available.
METAR KAVP 301754Z 28006KT 8SM BKN042 BKN049 OVC060 23/14 A2990 RMK AO2 SLP120 T02280139 10233 20150 58010

More Conditions Fewer Conditions

Pressure 29.89 in
Visibility 8.0 miles
Clouds Mostly Cloudy 4200 ft
Mostly Cloudy 4900 ft
Overcast 6000 ft
Dew Point 57 °F
Humidity 57%
Rainfall 0.00 in
Snow Depth Not available.
UV 2 out of 12
Pollen 1.90 out of 12
Air Quality Not available.
Flu Activity Not available.
METAR KAVP 301754Z 28006KT 8SM BKN042 BKN049 OVC060 23/14 A2990 RMK AO2 SLP120 T02280139 10233 20150 58010

More Conditions Fewer Conditions

10-Day Weather Forecast

Almanac

Astronomy

Sep. 30, 2014 Rise Set
Actual Time 6:56 AM EDT 6:44 PM EDT
Civil Twilight 6:29 AM EDT 7:12 PM EDT
Nautical Twilight 5:57 AM EDT 7:44 PM EDT
Astronomical Twilight 5:24 AM EDT 8:16 PM EDT
Moon 1:05 PM EDT 11:09 PM EDT
Length of Visible Light 12h 42m
Length of Day
11h 48m
Tomorrow will be 2m 43s shorter.
Waxing Crescent, 39% of the Moon is Illuminated
Today
Waxing Crescent
Oct 1
First Quarter
Oct 8
Full
Oct 15
Last Quarter
Oct 23
New

Today's Extremes

State Highs State Lows

Community

WunderPhotos

Upload Photos

1,757,712 photos uploaded!

Nearby

Snow Depth

Station Depth Elevation
No new snow has been reported.

Earthquake Activity

City Distance Mag. Time & Date
No recent earthquake activity has been reported nearby.
Minimum magnitude displayed is 2.5.

Coastal Water Temperatures

Place Temperature
No Stations Reporting

Nearby Weather Stations